createdAt,value
2018-12-11T00:00:53.157Z,4.80
2018-12-11T00:03:21.553Z,4.00
2018-12-11T00:05:49.980Z,3.90
2018-12-11T00:08:18.424Z,4.73
2018-12-11T00:10:46.880Z,4.83
2018-12-11T00:13:15.286Z,4.40
2018-12-11T00:15:43.725Z,4.60
2018-12-11T00:18:12.179Z,5.83
2018-12-11T00:20:40.590Z,5.70
2018-12-11T00:23:09.033Z,5.33
2018-12-11T00:25:37.461Z,4.37
2018-12-11T00:28:05.895Z,4.40
2018-12-11T00:30:34.336Z,4.10
2018-12-11T00:33:02.798Z,4.67
2018-12-11T00:35:31.236Z,5.10
2018-12-11T00:37:59.766Z,5.17
2018-12-11T00:40:28.235Z,5.70
2018-12-11T00:42:56.776Z,5.13
2018-12-11T00:45:25.191Z,4.80
2018-12-11T00:47:53.635Z,4.93
2018-12-11T00:50:22.066Z,4.83
2018-12-11T00:52:50.522Z,4.53
2018-12-11T00:55:19.061Z,4.47
2018-12-11T00:57:47.507Z,4.10
2018-12-11T01:00:15.967Z,4.50
2018-12-11T01:02:44.388Z,5.60
2018-12-11T01:05:12.920Z,4.37
2018-12-11T01:07:41.374Z,4.77
2018-12-11T01:10:10.547Z,5.20
2018-12-11T01:12:38.976Z,3.93
2018-12-11T01:15:07.605Z,4.97
2018-12-11T01:17:36.047Z,5.10
2018-12-11T01:20:05.637Z,3.90
2018-12-11T01:22:34.058Z,4.60
2018-12-11T01:25:02.572Z,4.50
2018-12-11T01:27:31.006Z,5.00
2018-12-11T01:29:59.393Z,3.80
2018-12-11T01:32:27.818Z,4.07
2018-12-11T01:34:56.227Z,4.40
2018-12-11T01:37:24.626Z,3.57
2018-12-11T01:39:53.024Z,5.10
2018-12-11T01:42:21.438Z,5.37
2018-12-11T01:44:49.881Z,4.30
2018-12-11T01:47:18.288Z,3.97
2018-12-11T01:49:46.691Z,5.50
2018-12-11T01:52:15.163Z,5.50
2018-12-11T01:54:43.561Z,6.33
2018-12-11T01:57:11.995Z,4.40
2018-12-11T01:59:40.389Z,4.60
2018-12-11T02:02:08.918Z,4.47
2018-12-11T02:04:37.302Z,4.63
2018-12-11T02:07:05.752Z,4.77
2018-12-11T02:09:34.139Z,5.23
2018-12-11T02:12:02.552Z,5.30
2018-12-11T02:14:30.977Z,5.57
2018-12-11T02:16:59.397Z,5.40
2018-12-11T02:19:27.800Z,5.90
2018-12-11T02:21:56.227Z,4.73
2018-12-11T02:24:24.628Z,4.23
2018-12-11T02:26:53.057Z,4.90
2018-12-11T02:29:21.479Z,4.77
2018-12-11T02:31:49.904Z,5.70
2018-12-11T02:34:18.432Z,4.97
2018-12-11T02:36:46.892Z,4.70
2018-12-11T02:39:15.292Z,6.17
2018-12-11T02:41:43.745Z,5.77
2018-12-11T02:44:12.304Z,5.73
2018-12-11T02:46:40.729Z,4.83
2018-12-11T02:49:09.169Z,5.10
2018-12-11T02:51:37.581Z,5.20
2018-12-11T02:54:06.003Z,5.93
2018-12-11T02:56:34.392Z,5.73
2018-12-11T02:59:02.826Z,7.15
2018-12-11T03:01:31.343Z,6.50
2018-12-11T03:03:59.870Z,5.90
2018-12-11T03:06:28.296Z,6.30
2018-12-11T03:08:56.691Z,6.80
2018-12-11T03:11:25.122Z,6.70
2018-12-11T03:13:53.525Z,6.85
2018-12-11T03:16:21.939Z,7.60
2018-12-11T03:18:50.357Z,5.45
2018-12-11T03:21:18.759Z,5.30
2018-12-11T03:23:47.147Z,5.00
2018-12-11T03:26:15.562Z,5.60
2018-12-11T03:28:43.976Z,5.90
2018-12-11T03:31:12.428Z,5.93
2018-12-11T03:33:40.809Z,5.13
2018-12-11T03:36:09.236Z,5.80
2018-12-11T03:38:37.644Z,4.80
2018-12-11T03:41:06.191Z,4.67
2018-12-11T03:43:34.630Z,5.62
2018-12-11T03:46:03.168Z,4.45
2018-12-11T03:48:31.609Z,5.67
2018-12-11T03:51:00.024Z,4.35
2018-12-11T03:53:28.443Z,4.70
2018-12-11T03:55:56.857Z,5.30
2018-12-11T03:58:25.300Z,5.22
2018-12-11T04:00:53.711Z,4.67
2018-12-11T04:03:22.125Z,4.13
2018-12-11T04:05:50.639Z,4.40
2018-12-11T04:08:19.047Z,5.10
2018-12-11T04:10:47.455Z,4.40
2018-12-11T04:13:15.852Z,4.97
2018-12-11T04:15:44.319Z,4.77
2018-12-11T04:18:12.730Z,5.07
2018-12-11T04:20:41.244Z,4.70
2018-12-11T04:23:09.677Z,7.60
2018-12-11T04:25:38.089Z,5.00
2018-12-11T04:28:06.506Z,4.80
2018-12-11T04:30:34.932Z,4.90
2018-12-11T04:33:03.373Z,5.23
2018-12-11T04:35:31.780Z,4.47
2018-12-11T04:38:00.205Z,4.83
2018-12-11T04:40:28.622Z,4.50
2018-12-11T04:42:57.023Z,4.90
2018-12-11T04:45:25.472Z,5.80
2018-12-11T04:47:53.887Z,5.50
2018-12-11T04:50:22.323Z,5.33
2018-12-11T04:52:50.710Z,5.70
2018-12-11T04:55:19.109Z,4.67
2018-12-11T04:57:47.528Z,4.53
2018-12-11T05:00:15.953Z,5.57
2018-12-11T05:02:44.372Z,5.03
2018-12-11T05:05:12.757Z,4.90
2018-12-11T05:07:41.168Z,5.63
2018-12-11T05:10:09.754Z,5.90
2018-12-11T05:12:38.252Z,5.60
2018-12-11T05:15:07.763Z,5.83
2018-12-11T05:17:36.292Z,6.13
2018-12-11T05:20:05.223Z,6.60
2018-12-11T05:22:33.643Z,5.23
2018-12-11T05:25:02.052Z,4.73
2018-12-11T05:27:30.438Z,5.53
2018-12-11T05:29:58.828Z,5.50
2018-12-11T05:32:27.262Z,6.00
2018-12-11T05:34:55.658Z,5.43
2018-12-11T05:37:24.285Z,4.83
2018-12-11T05:39:52.678Z,4.70
2018-12-11T05:42:21.091Z,4.43
2018-12-11T05:44:49.535Z,3.70
2018-12-11T05:47:17.928Z,5.30
2018-12-11T05:49:46.326Z,4.67
2018-12-11T05:52:14.787Z,4.67
2018-12-11T05:54:43.180Z,5.27
2018-12-11T05:57:11.611Z,3.77
2018-12-11T05:59:39.990Z,4.67
2018-12-11T06:02:08.395Z,4.30
2018-12-11T06:04:36.791Z,4.77
2018-12-11T06:07:05.176Z,4.40
2018-12-11T06:09:33.696Z,5.80
2018-12-11T06:12:02.096Z,4.70
2018-12-11T06:14:30.480Z,4.87
2018-12-11T06:16:58.946Z,5.37
2018-12-11T06:19:27.341Z,6.00
2018-12-11T06:21:55.799Z,6.97
2018-12-11T06:24:24.207Z,6.03
2018-12-11T06:26:52.645Z,7.20
2018-12-11T06:29:21.052Z,5.97
2018-12-11T06:31:49.472Z,6.30
2018-12-11T06:34:17.909Z,5.40
2018-12-11T06:36:46.315Z,6.00
2018-12-11T06:39:21.042Z,6.77
2018-12-11T06:41:49.456Z,5.10
2018-12-11T06:44:17.867Z,5.80
2018-12-11T06:46:46.268Z,6.40
2018-12-11T06:49:14.774Z,5.27
2018-12-11T06:51:43.206Z,6.10
2018-12-11T06:54:11.611Z,6.37
2018-12-11T06:56:40.032Z,6.50
2018-12-11T06:59:08.436Z,7.43
2018-12-11T07:01:36.897Z,6.30
2018-12-11T07:04:05.313Z,5.83
2018-12-11T07:06:33.737Z,5.73
2018-12-11T07:09:02.160Z,6.80
2018-12-11T07:11:30.601Z,5.13
2018-12-11T07:13:59.049Z,4.53
2018-12-11T07:16:27.467Z,4.13
2018-12-11T07:18:56.020Z,4.87
2018-12-11T07:21:24.463Z,5.67
2018-12-11T07:23:52.872Z,5.60
2018-12-11T07:26:21.295Z,4.00
2018-12-11T07:28:49.721Z,5.00
2018-12-11T07:31:18.141Z,6.07
2018-12-11T07:33:50.838Z,5.60
2018-12-11T07:36:23.744Z,4.80
2018-12-11T07:38:52.177Z,5.37
2018-12-11T07:41:20.586Z,6.40
2018-12-11T07:43:49.008Z,5.03
2018-12-11T07:46:17.439Z,4.97
2018-12-11T07:48:45.864Z,6.40
2018-12-11T07:51:14.432Z,5.30
2018-12-11T07:53:42.882Z,6.50
2018-12-11T07:56:11.307Z,6.17
2018-12-11T07:58:39.738Z,5.97
2018-12-11T08:01:08.191Z,6.00
2018-12-11T08:03:36.621Z,6.50
2018-12-11T08:06:05.039Z,6.27
2018-12-11T08:08:33.482Z,5.70
2018-12-11T08:11:08.531Z,5.70
2018-12-11T08:13:36.967Z,6.60
2018-12-11T08:16:05.902Z,6.67
2018-12-11T08:18:34.329Z,6.00
2018-12-11T08:21:02.844Z,5.50
2018-12-11T08:23:31.249Z,4.80
2018-12-11T08:25:59.717Z,5.80
2018-12-11T08:28:28.169Z,5.60
2018-12-11T08:30:56.597Z,5.30
2018-12-11T08:33:27.827Z,5.90
2018-12-11T08:35:56.312Z,5.73
2018-12-11T08:38:24.733Z,4.40
2018-12-11T08:40:53.149Z,5.07
2018-12-11T08:43:21.577Z,4.57
2018-12-11T08:45:49.999Z,5.03
2018-12-11T08:48:18.428Z,4.77
2018-12-11T08:50:46.870Z,4.53
2018-12-11T08:53:15.329Z,5.63
2018-12-11T08:55:43.785Z,4.60
2018-12-11T08:58:12.218Z,3.87
2018-12-11T09:00:40.677Z,4.47
2018-12-11T09:03:09.108Z,4.67
2018-12-11T09:05:37.527Z,3.90
2018-12-11T09:08:05.965Z,4.50
2018-12-11T09:10:34.376Z,3.77
2018-12-11T09:13:02.823Z,5.10
2018-12-11T09:15:31.248Z,4.00
2018-12-11T09:17:59.687Z,3.87
2018-12-11T09:20:28.116Z,4.33
2018-12-11T09:22:56.504Z,4.07
2018-12-11T09:25:24.955Z,3.87
2018-12-11T09:27:53.394Z,4.43
2018-12-11T09:30:21.816Z,3.73
2018-12-11T09:32:50.229Z,3.70
2018-12-11T09:35:18.662Z,4.20
2018-12-11T09:37:47.090Z,5.40
2018-12-11T09:40:15.503Z,3.87
2018-12-11T09:42:43.921Z,3.87
2018-12-11T09:45:12.364Z,3.60
2018-12-11T09:47:40.768Z,4.00
2018-12-11T09:50:09.458Z,4.00
2018-12-11T09:52:37.892Z,3.90
2018-12-11T09:55:06.601Z,5.47
2018-12-11T09:57:35.035Z,4.37
2018-12-11T10:00:04.151Z,3.73
2018-12-11T10:02:32.562Z,4.10
2018-12-11T10:05:00.979Z,4.67
2018-12-11T10:07:29.433Z,3.77
2018-12-11T10:09:57.872Z,4.57
2018-12-11T10:12:26.317Z,4.67
2018-12-11T10:14:54.727Z,5.43
2018-12-11T10:17:23.151Z,4.80
2018-12-11T10:19:51.583Z,5.40
2018-12-11T10:22:20.023Z,4.87
2018-12-11T10:24:48.516Z,5.50
2018-12-11T10:27:16.943Z,4.70
2018-12-11T10:29:45.369Z,7.40
2018-12-11T10:32:13.790Z,6.17
2018-12-11T10:34:42.354Z,7.10
2018-12-11T10:37:10.900Z,5.53
2018-12-11T10:39:39.341Z,5.17
2018-12-11T10:42:07.761Z,6.83
2018-12-11T10:44:36.177Z,6.13
2018-12-11T10:47:04.604Z,5.00
2018-12-11T10:49:33.031Z,5.10
2018-12-11T10:52:01.507Z,4.87
2018-12-11T10:54:29.927Z,5.20
2018-12-11T10:56:58.394Z,5.67
2018-12-11T10:59:26.830Z,4.93
2018-12-11T11:01:57.309Z,4.80
2018-12-11T11:04:25.856Z,5.97
2018-12-11T11:06:54.284Z,4.33
2018-12-11T11:09:22.744Z,4.20
2018-12-11T11:11:51.212Z,4.43
2018-12-11T11:14:19.677Z,4.77
2018-12-11T11:16:48.222Z,4.63
2018-12-11T11:19:16.972Z,4.83
2018-12-11T11:21:45.445Z,4.27
2018-12-11T11:24:13.960Z,4.20
2018-12-11T11:26:42.378Z,3.80
2018-12-11T11:29:10.812Z,3.60
2018-12-11T11:31:39.312Z,4.10
2018-12-11T11:34:07.740Z,3.73
2018-12-11T11:36:36.225Z,3.40
2018-12-11T11:39:07.500Z,3.90
2018-12-11T11:41:35.913Z,3.60
2018-12-11T11:44:04.351Z,2.93
2018-12-11T11:46:32.776Z,3.13
2018-12-11T11:49:01.246Z,4.17
2018-12-11T11:51:29.672Z,3.60
2018-12-11T11:53:58.108Z,3.30
2018-12-11T11:56:27.037Z,3.87
2018-12-11T11:58:55.436Z,3.27
2018-12-11T12:01:23.856Z,4.43
2018-12-11T12:03:52.290Z,3.90
2018-12-11T12:06:20.726Z,5.63
2018-12-11T12:08:50.215Z,3.57
2018-12-11T12:11:18.662Z,4.77
2018-12-11T12:13:47.639Z,3.53
2018-12-11T12:16:16.055Z,3.80
2018-12-11T12:18:44.483Z,4.10
2018-12-11T12:21:12.905Z,4.80
2018-12-11T12:23:41.342Z,4.80
2018-12-11T12:26:09.839Z,4.33
2018-12-11T12:28:38.269Z,3.00
2018-12-11T12:31:07.087Z,4.90
2018-12-11T12:33:35.506Z,3.73
2018-12-11T12:36:03.930Z,4.13
2018-12-11T12:38:32.364Z,4.90
2018-12-11T12:41:00.773Z,4.30
2018-12-11T12:43:35.996Z,3.97
2018-12-11T12:46:04.409Z,3.60
2018-12-11T12:48:32.838Z,3.87
2018-12-11T12:51:01.313Z,4.37
2018-12-11T12:53:29.783Z,4.13
2018-12-11T12:55:58.278Z,5.33
2018-12-11T12:58:26.691Z,4.07
2018-12-11T13:00:55.443Z,4.33
2018-12-11T13:03:24.030Z,3.63
2018-12-11T13:05:52.436Z,4.00
2018-12-11T13:08:20.858Z,3.77
2018-12-11T13:10:49.271Z,4.50
2018-12-11T13:13:17.738Z,5.03
2018-12-11T13:15:46.152Z,4.30
2018-12-11T13:18:14.579Z,4.37
2018-12-11T13:20:43.126Z,5.03
2018-12-11T13:23:11.535Z,3.60
2018-12-11T13:25:39.924Z,1.87
2018-12-11T13:28:08.351Z,1.90
2018-12-11T13:30:36.805Z,2.27
2018-12-11T13:33:05.211Z,2.93
2018-12-11T13:35:33.678Z,2.30
2018-12-11T13:38:02.103Z,2.40
2018-12-11T13:40:30.929Z,3.70
2018-12-11T13:42:59.706Z,2.27
2018-12-11T13:45:28.152Z,3.03
2018-12-11T13:47:56.685Z,3.90
2018-12-11T13:50:25.228Z,2.70
2018-12-11T13:52:53.674Z,4.43
2018-12-11T13:55:22.106Z,3.03
2018-12-11T13:57:50.511Z,3.23
2018-12-11T14:00:18.962Z,2.00
2018-12-11T14:02:47.398Z,2.90
2018-12-11T14:05:16.115Z,2.90
2018-12-11T14:07:44.563Z,3.10
2018-12-11T14:10:13.120Z,3.00
2018-12-11T14:12:41.547Z,3.17
2018-12-11T14:15:10.199Z,2.30
2018-12-11T14:17:38.618Z,3.10
2018-12-11T14:20:07.656Z,3.10
2018-12-11T14:22:36.069Z,2.20
2018-12-11T14:25:04.853Z,3.17
2018-12-11T14:27:33.274Z,2.57
2018-12-11T14:30:01.723Z,1.90
2018-12-11T14:32:30.339Z,2.80
2018-12-11T14:34:58.784Z,3.10
2018-12-11T14:37:27.229Z,4.20
2018-12-11T14:39:55.653Z,2.70
2018-12-11T14:42:24.041Z,2.40
2018-12-11T14:44:52.529Z,2.93
2018-12-11T14:47:20.933Z,4.00
2018-12-11T14:49:49.805Z,3.00
2018-12-11T14:52:18.244Z,2.83
2018-12-11T14:54:46.720Z,2.73
2018-12-11T14:57:15.211Z,5.30
2018-12-11T14:59:43.624Z,3.60
2018-12-11T15:02:12.048Z,3.77
2018-12-11T15:04:40.595Z,3.70
2018-12-11T15:07:09.084Z,3.40
2018-12-11T15:09:43.934Z,3.00
2018-12-11T15:12:12.617Z,4.10
2018-12-11T15:14:41.136Z,3.67
2018-12-11T15:17:09.588Z,3.17
2018-12-11T15:19:38.095Z,3.23
2018-12-11T15:22:06.506Z,4.13
2018-12-11T15:24:34.969Z,3.70
2018-12-11T15:27:03.539Z,2.50
2018-12-11T15:29:31.947Z,3.00
2018-12-11T15:32:00.376Z,2.73
2018-12-11T15:34:28.819Z,3.30
2018-12-11T15:36:57.242Z,3.00
2018-12-11T15:39:25.730Z,3.60
2018-12-11T15:41:54.149Z,3.10
2018-12-11T15:44:22.535Z,3.83
2018-12-11T15:46:51.112Z,3.13
2018-12-11T15:49:19.600Z,3.93
2018-12-11T15:51:48.217Z,2.83
2018-12-11T15:54:16.654Z,2.77
2018-12-11T15:56:45.556Z,3.20
2018-12-11T15:59:13.991Z,3.17
2018-12-11T16:01:42.591Z,3.57
2018-12-11T16:04:10.999Z,3.07
2018-12-11T16:06:39.401Z,2.93
2018-12-11T16:09:10.901Z,3.13
2018-12-11T16:11:39.471Z,3.07
2018-12-11T16:14:08.047Z,2.50
2018-12-11T16:16:36.527Z,2.97
2018-12-11T16:19:04.977Z,3.30
2018-12-11T16:21:33.391Z,3.50
2018-12-11T16:24:01.817Z,3.33
2018-12-11T16:26:30.258Z,3.20
2018-12-11T16:28:58.725Z,3.40
2018-12-11T16:31:27.196Z,4.27
2018-12-11T16:33:55.681Z,3.40
2018-12-11T16:36:24.103Z,3.30
2018-12-11T16:38:52.525Z,2.80
2018-12-11T16:41:20.995Z,5.00
2018-12-11T16:43:49.405Z,3.83
2018-12-11T16:46:17.808Z,3.00
2018-12-11T16:48:46.221Z,3.10
2018-12-11T16:51:14.632Z,3.90
2018-12-11T16:53:43.059Z,3.70
2018-12-11T16:56:11.496Z,3.93
2018-12-11T16:58:39.907Z,3.60
2018-12-11T17:01:08.329Z,4.87
2018-12-11T17:03:36.793Z,3.30
2018-12-11T17:06:05.190Z,3.57
2018-12-11T17:08:33.622Z,3.90
2018-12-11T17:11:02.025Z,4.30
2018-12-11T17:13:30.464Z,4.07
2018-12-11T17:15:58.866Z,3.87
2018-12-11T17:18:27.289Z,4.27
2018-12-11T17:20:56.148Z,3.90
2018-12-11T17:23:24.574Z,5.87
2018-12-11T17:25:53.019Z,3.97
2018-12-11T17:28:21.472Z,3.70
2018-12-11T17:30:49.898Z,4.07
2018-12-11T17:33:18.469Z,4.57
2018-12-11T17:35:46.901Z,3.97
2018-12-11T17:38:15.328Z,4.07
2018-12-11T17:40:43.740Z,3.23
2018-12-11T17:43:12.212Z,3.73
2018-12-11T17:45:40.704Z,3.70
2018-12-11T17:48:09.854Z,4.13
2018-12-11T17:50:39.284Z,4.03
2018-12-11T17:53:07.715Z,4.30
2018-12-11T17:55:36.255Z,4.33
2018-12-11T17:58:04.689Z,3.90
2018-12-11T18:00:33.120Z,4.47
2018-12-11T18:03:01.521Z,3.17
2018-12-11T18:05:29.957Z,3.40
2018-12-11T18:07:58.386Z,4.03
2018-12-11T18:10:26.824Z,3.63
2018-12-11T18:12:55.218Z,3.03
2018-12-11T18:15:23.636Z,3.60
2018-12-11T18:17:52.000Z,3.07
2018-12-11T18:20:20.482Z,2.47
2018-12-11T18:22:48.867Z,3.23
2018-12-11T18:25:17.611Z,3.00
2018-12-11T18:27:46.046Z,3.83
2018-12-11T18:30:14.584Z,2.60
2018-12-11T18:32:43.012Z,2.67
2018-12-11T18:35:14.054Z,2.43
2018-12-11T18:37:42.467Z,2.97
2018-12-11T18:40:10.969Z,2.60
2018-12-11T18:42:39.403Z,2.40
2018-12-11T18:45:09.771Z,2.10
2018-12-11T18:47:38.187Z,3.20
2018-12-11T18:50:07.337Z,2.80
2018-12-11T18:52:35.787Z,2.40
2018-12-11T18:55:04.483Z,2.70
2018-12-11T18:57:32.932Z,3.00
2018-12-11T19:00:01.345Z,3.58
2018-12-11T19:02:29.796Z,3.83
2018-12-11T19:04:58.332Z,3.33
2018-12-11T19:07:26.747Z,3.30
2018-12-11T19:09:55.340Z,3.83
2018-12-11T19:12:23.761Z,3.30
2018-12-11T19:14:52.220Z,4.00
2018-12-11T19:17:20.670Z,5.30
2018-12-11T19:19:49.079Z,4.10
2018-12-11T19:22:17.491Z,4.70
2018-12-11T19:24:49.754Z,4.20
2018-12-11T19:27:18.187Z,3.80
2018-12-11T19:29:46.663Z,5.55
2018-12-11T19:32:15.208Z,6.10
2018-12-11T19:34:43.615Z,4.35
2018-12-11T19:37:12.131Z,3.98
2018-12-11T19:39:40.570Z,5.87
2018-12-11T19:42:09.301Z,7.15
2018-12-11T19:44:37.739Z,5.90
2018-12-11T19:47:06.175Z,5.25
2018-12-11T19:49:34.615Z,6.55
2018-12-11T19:52:03.057Z,6.22
2018-12-11T19:54:31.492Z,5.25
2018-12-11T19:57:00.589Z,7.47
2018-12-11T19:59:29.061Z,6.85
2018-12-11T20:01:57.484Z,7.62
2018-12-11T20:04:25.934Z,7.20
2018-12-11T20:06:54.380Z,7.97
2018-12-11T20:09:22.801Z,6.83
2018-12-11T20:11:51.367Z,8.73
2018-12-11T20:14:19.881Z,9.63
2018-12-11T20:16:48.300Z,8.60
2018-12-11T20:19:16.853Z,9.23
2018-12-11T20:21:45.483Z,8.40
2018-12-11T20:24:14.164Z,7.03
2018-12-11T20:26:42.705Z,8.43
2018-12-11T20:29:11.179Z,9.60
2018-12-11T20:31:40.619Z,9.53
2018-12-11T20:34:09.103Z,8.90
2018-12-11T20:36:38.724Z,10.83
2018-12-11T20:39:09.894Z,10.50
2018-12-11T20:41:38.647Z,10.60
2018-12-11T20:44:07.353Z,9.65
2018-12-11T20:46:37.099Z,11.30
2018-12-11T20:49:07.193Z,10.53
2018-12-11T20:51:39.212Z,11.37
2018-12-11T20:54:08.507Z,10.13
2018-12-11T20:56:38.277Z,9.93
2018-12-11T20:59:07.732Z,9.63
2018-12-11T21:01:37.856Z,11.97
2018-12-11T21:04:07.682Z,11.03
2018-12-11T21:14:57.388Z,12.30
2018-12-11T21:17:30.156Z,10.97
2018-12-11T21:20:00.587Z,12.87
2018-12-11T21:22:39.953Z,11.00
2018-12-11T21:25:10.248Z,11.53
2018-12-11T21:27:45.892Z,11.90
2018-12-11T21:30:19.878Z,11.80
2018-12-11T21:32:56.664Z,11.73
2018-12-11T21:35:34.264Z,11.47
2018-12-11T21:38:05.192Z,10.33
2018-12-11T21:40:35.680Z,12.77
2018-12-11T21:43:04.344Z,12.83
2018-12-11T21:45:32.934Z,11.30
2018-12-11T21:48:01.409Z,12.10
2018-12-11T21:50:30.353Z,13.53
2018-12-11T21:52:58.904Z,10.90
2018-12-11T21:55:27.428Z,14.98
2018-12-11T21:57:56.019Z,13.87
2018-12-11T22:00:24.841Z,13.70
2018-12-11T22:02:53.375Z,13.50
2018-12-11T22:05:21.825Z,14.58
2018-12-11T22:07:50.489Z,13.78
2018-12-11T22:10:19.052Z,11.03
2018-12-11T22:12:47.740Z,16.20
2018-12-11T22:15:16.170Z,15.50
2018-12-11T22:17:44.728Z,15.50
2018-12-11T22:20:13.148Z,17.40
2018-12-11T22:22:41.883Z,16.32
2018-12-11T22:25:10.389Z,16.10
2018-12-11T22:27:38.830Z,17.60
2018-12-11T22:30:08.098Z,15.90
2018-12-11T22:32:36.565Z,16.23
2018-12-11T22:35:05.409Z,14.00
2018-12-11T22:37:33.853Z,14.60
2018-12-11T22:40:02.321Z,15.08
2018-12-11T22:42:31.154Z,13.78
2018-12-11T22:44:59.599Z,13.00
2018-12-11T22:47:28.536Z,14.07
2018-12-11T22:49:56.989Z,13.70
2018-12-11T22:52:25.627Z,14.13
2018-12-11T22:54:54.062Z,14.07
2018-12-11T22:57:22.529Z,15.58
2018-12-11T22:59:50.971Z,14.20
2018-12-11T23:02:19.403Z,14.63
2018-12-11T23:04:47.847Z,13.72
2018-12-11T23:07:16.298Z,13.80
2018-12-11T23:09:45.143Z,13.95
2018-12-11T23:12:13.698Z,16.70
2018-12-11T23:14:42.305Z,12.60
2018-12-11T23:17:10.731Z,13.00
2018-12-11T23:19:39.151Z,13.13
2018-12-11T23:22:07.656Z,14.18
2018-12-11T23:24:42.557Z,12.95
2018-12-11T23:27:11.025Z,11.50
2018-12-11T23:29:39.769Z,13.20
2018-12-11T23:32:08.202Z,13.22
2018-12-11T23:34:36.645Z,13.03
2018-12-11T23:37:05.124Z,14.80
2018-12-11T23:39:33.576Z,13.10
2018-12-11T23:42:01.969Z,13.87
2018-12-11T23:44:30.408Z,14.43
2018-12-11T23:46:58.885Z,14.73
2018-12-11T23:49:27.338Z,12.17
2018-12-11T23:51:55.793Z,15.53
2018-12-11T23:54:24.229Z,14.40
2018-12-11T23:56:52.681Z,14.30
2018-12-11T23:59:21.178Z,14.50
